Disclaimer

Please do not use the information listed here in-flight or in-navigation, as they are not provided to us by the airports but are provided by volunteers, so they might be outdated.

Search


Regions


Airport information page

Radio informations:
Tower (TWR) - 118.1 MHz
Ground (GND) - 121.9 MHz
Director (DIR) - 119.5 MHz
BUDAPEST APP - 129.7 MHz

Airport informations:
Latitude: 47° 26' 12.96" N
Longitude: 019° 15' 20.13" E
Elevation: 495 feet - 151 meters
Operating hours: 24 hour operations
Operating agency: Civil government, landing fees and diplomatic clearance may be required
Timezone: UTC+1(+2DT) - Last Sunday in March to last Sunday in October
Fuel: Jet A1, without icing nhibitor.

Runway information:
13R/31L - 9875 x 195 feet< - >3010 x 59 meters
13L/31R - 12162 x 195 feet< - >3707 x 59 meters

Recent METARs:
LHBP 202230Z 06006KT 3500 BR BKN004 OVC008 05/04 Q1014 NOSIG
LHBP 202300Z 07007KT 5000 BR BKN003 OVC007 05/05 Q1014 NOSIG
LHBP 202330Z 09008KT 3000 -DZ BR OVC003 05/05 Q1014 NOSIG

Airport on the map: